首页
METAR-TAF:

METAR-TAF

机场 :

切图马尔, 墨西哥

纬度: 18-29N, 经度: 088-18W, 海拔: 9米

当前天气观测

该预报发布于36分钟前的23:46 UTC
风速9节,风向东转东南
温度 26°C
湿度 74%
气压 1014 hPa
能見度: 11.3公里
少量云层高于2000英尺

METAR: MMCM 092346Z 12009KT 7SM FEW020 26/21 A2993 RMK SLP137 5//// 977 8/500

时间: 18:22 (00:22 UTC)

预报

该预报发布于7小时和27分钟前的16:55 UTC
预报有效从09日的 18点(UTC)到 10日的 18点(UTC)
风速10节,风向东转东南
能見度: 10公里
散云层高于2000英尺
从 10日的 0600点(UTC)
风速12节,风向东转东南
能見度: 9.7公里
多云层高于2000英尺

TAF: MMCM 091655Z 0918/1018 11010KT P6SM SCT020 FM100600 11012KT 6SM HZ BKN020

超过4000个机场的气象观测和天气预报(METAR&TAF报告)。

可查询的气象台以黄色和红色小点在地图上表示。

将鼠标移到小点上方,可查看气象台名称。

然后点击查看天气观测和预报。

如需切换地图:点击带黑十字的绿色按钮放大地图;点击带横线的绿色按钮缩小地图;或者点击绿色箭头查看邻近地区的地图。


METAR-TAF: